createdAt,value
2022-11-06T00:01:23.391Z,101072.70
2022-11-06T00:03:56.864Z,101073.48
2022-11-06T00:06:47.851Z,101081.53
2022-11-06T00:09:22.074Z,101080.63
2022-11-06T00:11:54.877Z,101082.69
2022-11-06T00:14:27.836Z,101081.39
2022-11-06T00:17:01.913Z,101086.57
2022-11-06T00:19:36.435Z,101083.98
2022-11-06T00:22:09.367Z,101083.22
2022-11-06T00:24:42.525Z,101087.25
2022-11-06T00:27:15.872Z,101082.06
2022-11-06T00:29:48.807Z,101076.88
2022-11-06T00:32:21.745Z,101081.67
2022-11-06T00:34:55.720Z,101083.90
2022-11-06T00:37:29.122Z,101079.89
2022-11-06T00:40:05.336Z,101078.20
2022-11-06T00:42:38.452Z,101076.27
2022-11-06T00:45:12.308Z,101076.48
2022-11-06T00:47:45.626Z,101070.80
2022-11-06T00:50:18.869Z,101075.59
2022-11-06T00:52:52.123Z,101066.52
2022-11-06T00:55:25.281Z,101063.03
2022-11-06T00:57:59.502Z,101064.95
2022-11-06T01:00:31.894Z,101064.30
2022-11-06T01:03:04.813Z,101066.61
2022-11-06T01:05:38.404Z,101069.43
2022-11-06T01:08:11.592Z,101067.91
2022-11-06T01:10:44.747Z,101082.64
2022-11-06T01:13:18.106Z,101082.64
2022-11-06T01:15:51.149Z,101082.89
2022-11-06T01:18:24.018Z,101080.52
2022-11-06T01:20:59.140Z,101083.91
2022-11-06T01:23:32.332Z,101084.05
2022-11-06T01:26:08.877Z,101084.69
2022-11-06T01:28:42.962Z,101083.93
2022-11-06T01:31:19.980Z,101093.89
2022-11-06T01:33:52.908Z,101097.64
2022-11-06T01:36:26.306Z,101098.29
2022-11-06T01:39:04.111Z,101099.59
2022-11-06T01:41:48.487Z,101102.45
2022-11-06T01:44:43.940Z,101100.02
2022-11-06T01:47:27.256Z,101104.17
2022-11-06T01:50:04.877Z,101108.82
2022-11-06T01:52:38.448Z,101108.68
2022-11-06T01:55:21.726Z,101111.89
2022-11-06T01:57:55.673Z,101112.00
2022-11-06T02:00:29.461Z,101122.22
2022-11-06T02:03:02.765Z,101118.59
2022-11-06T02:05:36.975Z,101115.34
2022-11-06T02:08:11.922Z,101114.34
2022-11-06T02:10:45.741Z,101105.41
2022-11-06T02:13:38.273Z,101112.14
2022-11-06T02:16:28.854Z,101115.34
2022-11-06T02:19:21.362Z,101121.17
2022-11-06T02:22:11.518Z,101116.90
2022-11-06T02:25:03.701Z,101127.66
2022-11-06T02:27:38.339Z,101112.25
2022-11-06T02:30:14.834Z,101113.69
2022-11-06T02:33:01.488Z,101125.70
2022-11-06T02:35:50.205Z,101127.00
2022-11-06T02:38:28.012Z,101112.54
2022-11-06T02:41:04.046Z,101119.80
2022-11-06T02:43:44.346Z,101119.04
2022-11-06T02:46:27.385Z,101113.86
2022-11-06T02:49:07.269Z,101113.10
2022-11-06T02:51:44.746Z,101117.89
2022-11-06T02:54:19.730Z,101119.58
2022-11-06T02:56:54.239Z,101119.58
2022-11-06T02:59:35.066Z,101128.65
2022-11-06T03:02:11.070Z,101132.53
2022-11-06T03:05:07.643Z,101129.80
2022-11-06T03:08:01.865Z,101133.69
2022-11-06T03:10:42.073Z,101144.05
2022-11-06T03:13:19.979Z,101144.55
2022-11-06T03:16:06.584Z,101144.55
2022-11-06T03:19:02.775Z,101149.45
2022-11-06T03:21:56.952Z,101153.59
2022-11-06T03:24:34.746Z,101142.69
2022-11-06T03:27:23.813Z,101153.59
2022-11-06T03:30:12.577Z,101149.84
2022-11-06T03:33:09.355Z,101146.50
2022-11-06T03:35:54.855Z,101145.56
2022-11-06T03:38:53.079Z,101155.78
2022-11-06T03:41:40.345Z,101151.00
2022-11-06T03:44:16.301Z,101156.43
2022-11-06T03:46:53.721Z,101157.73
2022-11-06T03:49:34.001Z,101158.09
2022-11-06T03:52:11.877Z,101155.89
2022-11-06T03:54:50.496Z,101153.30
2022-11-06T03:57:31.254Z,101149.42
2022-11-06T04:00:08.266Z,101155.89
2022-11-06T04:03:02.850Z,101154.20
2022-11-06T04:05:40.647Z,101152.77
2022-11-06T04:08:32.819Z,101154.31
2022-11-06T04:11:24.850Z,101157.66
2022-11-06T04:14:01.237Z,101150.68
2022-11-06T04:16:37.923Z,101144.42
2022-11-06T04:19:22.794Z,101147.55
2022-11-06T04:22:09.188Z,101150.42
2022-11-06T04:25:36.728Z,101147.08
2022-11-06T04:28:37.277Z,101148.38
2022-11-06T04:31:39.818Z,101160.50
2022-11-06T04:34:25.657Z,101159.85
2022-11-06T04:37:12.097Z,101156.33
2022-11-06T04:40:28.790Z,101164.09
2022-11-06T04:43:12.031Z,101165.64
2022-11-06T04:45:48.771Z,101164.75
2022-11-06T04:48:22.963Z,101167.05
2022-11-06T04:51:00.112Z,101166.51
2022-11-06T04:53:33.924Z,101167.52
2022-11-06T04:56:15.599Z,101179.02
2022-11-06T04:58:48.046Z,101177.58
2022-11-06T05:01:21.116Z,101184.95
2022-11-06T05:03:54.759Z,101192.22
2022-11-06T05:06:30.148Z,101198.69
2022-11-06T05:09:02.179Z,101200.06
2022-11-06T05:11:38.756Z,101201.35
2022-11-06T05:14:12.678Z,101202.29
2022-11-06T05:16:45.600Z,101205.38
2022-11-06T05:19:19.075Z,101212.25
2022-11-06T05:22:09.497Z,101212.64
2022-11-06T05:24:43.487Z,101223.50
2022-11-06T05:27:17.147Z,101213.30
2022-11-06T05:29:51.553Z,101222.00
2022-11-06T05:32:24.774Z,101220.55
2022-11-06T05:34:58.433Z,101226.78
2022-11-06T05:37:31.255Z,101232.25
2022-11-06T05:40:04.530Z,101234.98
2022-11-06T05:42:43.359Z,101236.42
2022-11-06T05:45:16.452Z,101235.89
2022-11-06T05:47:49.625Z,101242.15
2022-11-06T05:50:23.342Z,101248.23
2022-11-06T05:52:56.310Z,101253.70
2022-11-06T05:55:29.382Z,101254.89
2022-11-06T05:58:02.434Z,101262.41
2022-11-06T06:00:35.549Z,101263.09
2022-11-06T06:03:08.528Z,101264.39
2022-11-06T06:05:42.007Z,101267.52
2022-11-06T06:08:15.261Z,101265.44
2022-11-06T06:10:50.333Z,101271.91
2022-11-06T06:13:23.106Z,101268.96
2022-11-06T06:15:55.965Z,101271.55
2022-11-06T06:18:28.744Z,101278.78
2022-11-06T06:21:02.156Z,101277.95
2022-11-06T06:23:35.035Z,101282.98
2022-11-06T06:26:08.886Z,101277.91
2022-11-06T06:28:42.588Z,101281.64
2022-11-06T06:31:15.471Z,101278.30
2022-11-06T06:33:48.294Z,101277.30
2022-11-06T06:36:21.786Z,101280.18
2022-11-06T06:38:54.678Z,101286.70
2022-11-06T06:41:27.554Z,101286.23
2022-11-06T06:44:00.366Z,101292.46
2022-11-06T06:46:33.963Z,101284.44
2022-11-06T06:49:06.998Z,101283.54
2022-11-06T06:51:41.529Z,101292.75
2022-11-06T06:54:14.506Z,101287.32
2022-11-06T06:56:50.234Z,101289.70
2022-11-06T06:59:23.065Z,101295.92
2022-11-06T07:01:58.035Z,101294.23
2022-11-06T07:04:31.016Z,101301.86
2022-11-06T07:07:04.248Z,101307.30
2022-11-06T07:09:37.290Z,101312.58
2022-11-06T07:12:10.838Z,101314.48
2022-11-06T07:14:43.810Z,101313.14
2022-11-06T07:17:17.121Z,101304.93
2022-11-06T07:19:49.813Z,101304.64
2022-11-06T07:22:30.760Z,101313.41
2022-11-06T07:24:57.872Z,101311.97
2022-11-06T07:27:31.542Z,101317.39
2022-11-06T07:30:04.360Z,101325.77
2022-11-06T07:32:37.863Z,101325.47
2022-11-06T07:35:11.327Z,101325.42
2022-11-06T07:37:44.900Z,101331.84
2022-11-06T07:40:18.012Z,101326.13
2022-11-06T07:42:51.072Z,101329.16
2022-11-06T07:45:24.648Z,101334.20
2022-11-06T07:47:59.642Z,101334.59
2022-11-06T07:50:33.522Z,101329.80
2022-11-06T07:53:07.073Z,101337.72
2022-11-06T07:55:42.359Z,101329.26
2022-11-06T07:58:15.207Z,101333.75
2022-11-06T08:00:55.259Z,101328.27
2022-11-06T08:03:31.363Z,101332.15
2022-11-06T08:06:05.931Z,101335.67
2022-11-06T08:08:39.209Z,101327.37
2022-11-06T08:11:14.209Z,101321.80
2022-11-06T08:13:48.456Z,101324.78
2022-11-06T08:16:21.109Z,101317.62
2022-11-06T08:18:54.025Z,101321.14
2022-11-06T08:21:27.506Z,101323.73
2022-11-06T08:24:00.920Z,101328.66
2022-11-06T08:26:34.514Z,101332.55
2022-11-06T08:29:07.911Z,101329.20
2022-11-06T08:31:40.572Z,101326.61
2022-11-06T08:34:13.795Z,101328.27
2022-11-06T08:36:49.676Z,101326.31
2022-11-06T08:39:22.559Z,101323.94
2022-11-06T08:41:55.287Z,101325.33
2022-11-06T08:44:28.054Z,101322.73
2022-11-06T08:47:01.973Z,101324.97
2022-11-06T08:49:35.216Z,101329.91
2022-11-06T08:52:08.756Z,101328.21
2022-11-06T08:54:41.974Z,101327.91
2022-11-06T08:57:14.891Z,101324.37
2022-11-06T08:59:48.433Z,101323.43
2022-11-06T09:02:21.267Z,101326.17
2022-11-06T09:04:54.790Z,101330.59
2022-11-06T09:07:27.676Z,101324.67
2022-11-06T09:10:00.379Z,101321.69
2022-11-06T09:12:33.406Z,101324.42
2022-11-06T09:15:06.845Z,101324.67
2022-11-06T09:17:51.883Z,101328.91
2022-11-06T09:20:26.464Z,101327.25
2022-11-06T09:23:05.572Z,101329.69
2022-11-06T09:25:38.582Z,101333.78
2022-11-06T09:28:11.438Z,101331.59
2022-11-06T09:30:45.218Z,101325.66
2022-11-06T09:33:18.602Z,101321.53
2022-11-06T09:35:53.110Z,101321.98
2022-11-06T09:38:25.719Z,101323.28
2022-11-06T09:41:05.015Z,101324.58
2022-11-06T09:44:13.897Z,101330.84
2022-11-06T09:46:48.458Z,101325.81
2022-11-06T09:49:49.139Z,101332.97
2022-11-06T09:52:47.232Z,101323.46
2022-11-06T09:55:24.587Z,101318.73
2022-11-06T09:58:05.319Z,101326.73
2022-11-06T10:00:40.801Z,101328.78
2022-11-06T10:03:50.062Z,101330.08
2022-11-06T10:06:24.971Z,101333.80
2022-11-06T10:09:02.740Z,101325.53
2022-11-06T10:11:51.728Z,101328.63
2022-11-06T10:14:59.788Z,101323.45
2022-11-06T10:17:54.951Z,101320.36
2022-11-06T10:20:35.118Z,101318.28
2022-11-06T10:23:27.345Z,101319.38
2022-11-06T10:26:10.908Z,101317.92
2022-11-06T10:29:10.966Z,101331.02
2022-11-06T10:32:38.711Z,101326.59
2022-11-06T10:35:19.143Z,101324.24
2022-11-06T10:37:56.982Z,101322.49
2022-11-06T10:40:35.301Z,101316.48
2022-11-06T10:43:35.540Z,101326.73
2022-11-06T10:46:42.265Z,101318.83
2022-11-06T10:49:34.955Z,101315.64
2022-11-06T10:52:47.451Z,101313.80
2022-11-06T10:56:08.181Z,101310.22
2022-11-06T10:58:37.333Z,101311.58
2022-11-06T11:01:13.693Z,101305.41
2022-11-06T11:03:47.891Z,101310.64
2022-11-06T11:06:21.375Z,101308.05
2022-11-06T11:08:55.043Z,101311.33
2022-11-06T11:11:29.667Z,101311.73
2022-11-06T11:14:09.926Z,101310.48
2022-11-06T11:16:46.151Z,101312.42
2022-11-06T11:19:42.209Z,101313.17
2022-11-06T11:22:22.153Z,101318.59
2022-11-06T11:25:11.681Z,101307.84
2022-11-06T11:27:47.900Z,101307.99
2022-11-06T11:30:27.427Z,101311.87
2022-11-06T11:33:00.476Z,101315.61
2022-11-06T11:35:35.869Z,101311.82
2022-11-06T11:38:21.678Z,101311.66
2022-11-06T11:40:55.937Z,101312.05
2022-11-06T11:43:31.103Z,101314.33
2022-11-06T11:46:14.454Z,101309.94
2022-11-06T11:49:00.171Z,101314.87
2022-11-06T11:51:43.772Z,101313.73
2022-11-06T11:54:20.285Z,101300.95
2022-11-06T11:57:06.962Z,101302.94
2022-11-06T11:59:48.335Z,101299.42
2022-11-06T12:02:34.662Z,101292.20
2022-11-06T12:05:16.895Z,101304.14
2022-11-06T12:07:56.327Z,101297.67
2022-11-06T12:10:46.814Z,101299.72
2022-11-06T12:13:22.875Z,101300.50
2022-11-06T12:16:11.368Z,101306.28
2022-11-06T12:18:58.542Z,101304.08
2022-11-06T12:21:36.792Z,101304.08
2022-11-06T12:24:25.313Z,101308.56
2022-11-06T12:27:02.787Z,101306.66
2022-11-06T12:29:54.376Z,101304.16
2022-11-06T12:32:44.274Z,101302.87
2022-11-06T12:35:36.302Z,101309.19
2022-11-06T12:38:29.503Z,101316.04
2022-11-06T12:41:24.993Z,101315.95
2022-11-06T12:43:58.707Z,101312.77
2022-11-06T12:46:55.401Z,101310.84
2022-11-06T12:49:48.112Z,101313.58
2022-11-06T12:53:06.492Z,101305.28
2022-11-06T12:55:47.068Z,101306.06
2022-11-06T12:58:46.521Z,101304.22
2022-11-06T13:01:38.713Z,101297.91
2022-11-06T13:04:22.361Z,101293.34
2022-11-06T13:07:14.777Z,101293.73
2022-11-06T13:10:26.825Z,101293.10
2022-11-06T13:13:16.850Z,101285.34
2022-11-06T13:16:09.809Z,101294.09
2022-11-06T13:18:53.071Z,101297.31
2022-11-06T13:21:36.350Z,101294.58
2022-11-06T13:24:16.729Z,101291.75
2022-11-06T13:26:59.499Z,101290.06
2022-11-06T13:29:33.172Z,101285.28
2022-11-06T13:32:13.981Z,101291.20
2022-11-06T13:34:50.854Z,101297.91
2022-11-06T13:37:39.629Z,101296.47
2022-11-06T13:40:36.429Z,101298.55
2022-11-06T13:43:31.202Z,101297.91
2022-11-06T13:46:36.139Z,101299.05
2022-11-06T13:49:44.020Z,101299.05
2022-11-06T13:52:44.316Z,101296.47
2022-11-06T13:55:30.990Z,101298.55
2022-11-06T13:58:40.202Z,101301.87
2022-11-06T14:01:41.021Z,101293.81
2022-11-06T14:04:39.370Z,101290.84
2022-11-06T14:07:12.922Z,101286.06
2022-11-06T14:09:47.506Z,101288.34
2022-11-06T14:12:23.673Z,101291.52
2022-11-06T14:15:01.346Z,101288.63
2022-11-06T14:17:34.358Z,101293.95
2022-11-06T14:20:14.635Z,101295.25
2022-11-06T14:22:47.463Z,101296.55
2022-11-06T14:25:39.728Z,101300.66
2022-11-06T14:28:13.652Z,101303.48
2022-11-06T14:33:46.026Z,101304.71
2022-11-06T14:36:31.782Z,101305.30
2022-11-06T14:39:05.425Z,101308.80
2022-11-06T14:41:47.342Z,101305.45
2022-11-06T14:44:27.883Z,101309.64
2022-11-06T14:47:04.909Z,101304.00
2022-11-06T14:49:45.892Z,101304.15
2022-11-06T14:52:20.964Z,101313.74
2022-11-06T14:55:06.004Z,101319.16
2022-11-06T14:57:49.584Z,101318.22
2022-11-06T15:00:50.911Z,101321.94
2022-11-06T15:03:55.660Z,101319.36
2022-11-06T15:06:39.321Z,101318.61
2022-11-06T15:09:29.183Z,101320.80
2022-11-06T15:12:05.193Z,101324.17
2022-11-06T15:14:42.776Z,101320.34
2022-11-06T15:17:17.202Z,101322.27
2022-11-06T15:20:03.862Z,101318.39
2022-11-06T15:22:41.463Z,101317.76
2022-11-06T15:25:27.730Z,101318.30
2022-11-06T15:28:11.144Z,101327.90
2022-11-06T15:31:03.240Z,101325.31
2022-11-06T15:34:11.470Z,101325.91
2022-11-06T15:36:47.300Z,101326.53
2022-11-06T15:39:57.713Z,101325.98
2022-11-06T15:42:37.955Z,101325.59
2022-11-06T15:45:18.894Z,101324.10
2022-11-06T15:48:04.167Z,101327.74
2022-11-06T15:50:38.922Z,101329.94
2022-11-06T15:53:17.087Z,101329.19
2022-11-06T15:56:09.152Z,101322.18
2022-11-06T15:58:43.590Z,101333.42
2022-11-06T16:01:17.045Z,101329.55
2022-11-06T16:03:55.872Z,101334.52
2022-11-06T16:06:28.953Z,101328.56
2022-11-06T16:09:02.746Z,101335.57
2022-11-06T16:11:37.030Z,101328.20
2022-11-06T16:14:14.467Z,101330.24
2022-11-06T16:16:52.833Z,101325.23
2022-11-06T16:19:36.496Z,101326.52
2022-11-06T16:22:13.349Z,101323.03
2022-11-06T16:25:05.003Z,101329.11
2022-11-06T16:27:41.516Z,101326.91
2022-11-06T16:30:26.090Z,101327.42
2022-11-06T16:32:59.476Z,101333.73
2022-11-06T16:35:37.888Z,101333.07
2022-11-06T16:38:43.279Z,101333.42
2022-11-06T16:41:39.974Z,101338.23
2022-11-06T16:44:34.601Z,101336.71
2022-11-06T16:47:14.955Z,101339.69
2022-11-06T16:49:57.376Z,101345.52
2022-11-06T16:52:36.011Z,101341.28
2022-11-06T16:55:28.658Z,101338.70
2022-11-06T16:58:03.081Z,101337.41
2022-11-06T17:00:36.998Z,101337.17
2022-11-06T17:03:21.953Z,101343.64
2022-11-06T17:05:59.538Z,101343.40
2022-11-06T17:08:41.606Z,101342.26
2022-11-06T17:11:21.997Z,101345.39
2022-11-06T17:13:55.595Z,101348.72
2022-11-06T17:16:30.917Z,101349.86
2022-11-06T17:19:04.130Z,101339.36
2022-11-06T17:21:37.281Z,101342.73
2022-11-06T17:24:35.499Z,101349.86
2022-11-06T17:26:55.542Z,101350.56
2022-11-06T17:29:30.864Z,101344.64
2022-11-06T17:32:04.731Z,101345.15
2022-11-06T17:34:39.404Z,101346.59
2022-11-06T17:37:13.086Z,101348.05
2022-11-06T17:39:45.937Z,101336.25
2022-11-06T17:42:22.821Z,101336.09
2022-11-06T17:44:55.848Z,101339.83
2022-11-06T17:47:28.825Z,101338.69
2022-11-06T17:50:01.762Z,101332.37
2022-11-06T17:52:34.875Z,101333.81
2022-11-06T17:55:09.786Z,101328.29
2022-11-06T17:57:44.033Z,101328.29
2022-11-06T18:00:20.088Z,101331.70
2022-11-06T18:03:01.631Z,101331.41
2022-11-06T18:05:29.262Z,101332.70
2022-11-06T18:08:04.800Z,101329.88
2022-11-06T18:10:39.399Z,101330.42
2022-11-06T18:13:13.651Z,101323.17
2022-11-06T18:15:48.566Z,101321.52
2022-11-06T18:18:25.828Z,101316.85
2022-11-06T18:20:58.973Z,101320.58
2022-11-06T18:23:31.737Z,101323.95
2022-11-06T18:26:04.721Z,101328.42
2022-11-06T18:28:39.296Z,101324.78
2022-11-06T18:31:12.359Z,101316.48
2022-11-06T18:33:45.472Z,101320.12
2022-11-06T18:36:19.347Z,101312.52
2022-11-06T18:38:53.939Z,101314.75
2022-11-06T18:41:30.345Z,101314.90
2022-11-06T18:44:08.829Z,101318.23
2022-11-06T18:46:44.508Z,101316.39
2022-11-06T18:49:18.401Z,101317.53
2022-11-06T18:51:51.343Z,101317.17
2022-11-06T18:54:25.086Z,101317.69
2022-11-06T18:56:58.211Z,101326.14
2022-11-06T18:59:32.996Z,101322.27
2022-11-06T19:02:09.767Z,101320.97
2022-11-06T19:04:43.518Z,101321.21
2022-11-06T19:07:17.175Z,101317.17
2022-11-06T19:09:50.136Z,101321.41
2022-11-06T19:12:24.349Z,101317.53
2022-11-06T19:14:57.533Z,101319.22
2022-11-06T19:17:32.490Z,101316.63
2022-11-06T19:20:08.529Z,101316.24
2022-11-06T19:22:41.873Z,101317.03
2022-11-06T19:25:14.905Z,101317.23
2022-11-06T19:27:49.393Z,101319.66
2022-11-06T19:30:25.038Z,101324.17
2022-11-06T19:33:01.272Z,101318.93
2022-11-06T19:35:35.261Z,101322.50
2022-11-06T19:38:09.757Z,101311.31
2022-11-06T19:40:47.719Z,101314.95
2022-11-06T19:43:22.744Z,101313.97
2022-11-06T19:45:56.243Z,101309.73
2022-11-06T19:48:31.148Z,101313.22
2022-11-06T19:51:03.234Z,101312.31
2022-11-06T19:53:36.050Z,101302.56
2022-11-06T19:56:12.814Z,101306.89
2022-11-06T19:58:47.600Z,101299.37
2022-11-06T20:01:22.080Z,101301.95
2022-11-06T20:03:54.977Z,101298.98
2022-11-06T20:06:27.707Z,101299.67
2022-11-06T20:09:00.700Z,101297.48
2022-11-06T20:11:34.196Z,101297.69
2022-11-06T20:14:07.148Z,101294.44
2022-11-06T20:16:42.146Z,101297.22
2022-11-06T20:19:15.814Z,101298.91
2022-11-06T20:21:48.821Z,101297.22
2022-11-06T20:24:21.966Z,101295.18
2022-11-06T20:26:56.899Z,101290.56
2022-11-06T20:29:30.706Z,101290.71
2022-11-06T20:32:03.943Z,101284.60
2022-11-06T20:34:37.640Z,101288.48
2022-11-06T20:37:11.122Z,101282.26
2022-11-06T20:39:44.502Z,101275.09
2022-11-06T20:42:22.560Z,101276.39
2022-11-06T20:44:56.155Z,101279.91
2022-11-06T20:47:29.709Z,101272.30
2022-11-06T20:50:02.851Z,101274.50
2022-11-06T20:52:36.349Z,101275.05
2022-11-06T20:55:10.106Z,101274.50
2022-11-06T20:57:42.879Z,101272.16
2022-11-06T21:00:17.292Z,101279.12
2022-11-06T21:02:50.341Z,101273.75
2022-11-06T21:05:23.403Z,101267.95
2022-11-06T21:07:58.720Z,101267.12
2022-11-06T21:10:31.889Z,101266.12
2022-11-06T21:13:05.480Z,101262.25
2022-11-06T21:15:39.296Z,101260.45
2022-11-06T21:18:12.682Z,101261.35
2022-11-06T21:20:47.898Z,101260.45
2022-11-06T21:23:21.737Z,101264.48
2022-11-06T21:25:54.997Z,101262.41
2022-11-06T21:28:27.880Z,101256.87
2022-11-06T21:31:01.468Z,101259.07
2022-11-06T21:33:34.631Z,101245.24
2022-11-06T21:36:23.750Z,101241.88
2022-11-06T21:39:00.185Z,101243.17
2022-11-06T21:41:35.497Z,101248.04
2022-11-06T21:44:11.695Z,101244.47
2022-11-06T21:46:46.184Z,101240.10
2022-11-06T21:49:19.425Z,101232.14
2022-11-06T21:51:52.723Z,101236.38
2022-11-06T21:54:43.301Z,101238.96
2022-11-06T21:57:16.258Z,101236.92
2022-11-06T21:59:49.754Z,101236.67
2022-11-06T22:02:23.653Z,101236.83
2022-11-06T22:04:56.776Z,101235.69
2022-11-06T22:07:29.757Z,101230.12
2022-11-06T22:10:03.206Z,101230.91
2022-11-06T22:12:37.086Z,101232.20
2022-11-06T22:15:11.222Z,101226.87
2022-11-06T22:17:44.656Z,101230.00
2022-11-06T22:20:17.748Z,101232.59
2022-11-06T22:22:51.858Z,101228.71
2022-11-06T22:25:24.870Z,101234.00
2022-11-06T22:27:58.005Z,101237.13
2022-11-06T22:30:31.099Z,101241.75
2022-11-06T22:33:04.746Z,101240.11
2022-11-06T22:35:37.887Z,101235.29
2022-11-06T22:38:11.591Z,101229.22
2022-11-06T22:40:55.745Z,101233.09
2022-11-06T22:43:29.792Z,101234.15
2022-11-06T22:46:06.022Z,101229.52
2022-11-06T22:48:40.451Z,101233.16
2022-11-06T22:51:17.109Z,101230.56
2022-11-06T22:53:54.023Z,101228.77
2022-11-06T22:56:29.133Z,101230.66
2022-11-06T22:59:05.434Z,101229.77
2022-11-06T23:01:42.757Z,101229.37
2022-11-06T23:04:17.161Z,101229.22
2022-11-06T23:06:50.953Z,101233.25
2022-11-06T23:09:24.246Z,101235.59
2022-11-06T23:11:58.438Z,101240.77
2022-11-06T23:14:33.120Z,101239.32
2022-11-06T23:17:06.000Z,101243.20
2022-11-06T23:19:39.273Z,101244.89
2022-11-06T23:22:30.337Z,101241.40
2022-11-06T23:25:05.257Z,101238.81
2022-11-06T23:27:43.314Z,101241.25
2022-11-06T23:30:16.097Z,101246.42
2022-11-06T23:32:49.190Z,101239.41
2022-11-06T23:35:23.006Z,101237.81
2022-11-06T23:37:56.736Z,101237.16
2022-11-06T23:40:30.210Z,101240.73
2022-11-06T23:43:03.151Z,101240.34
2022-11-06T23:45:51.916Z,101234.42
2022-11-06T23:48:25.006Z,101239.75
2022-11-06T23:50:58.921Z,101236.47
2022-11-06T23:53:31.845Z,101229.70
2022-11-06T23:56:09.995Z,101234.72
2022-11-06T23:58:44.477Z,101243.23
